Time;durP1;ratioP1;P1;durP2;ratioP2;P2;SDS_P1;SDS_P2;PMS_P1;PMS_P2;Temp;Humidity;BMP_temperature;BMP_pressure;BME280_temperature;BME280_humidity;BME280_pressure;Samples;Min_cycle;Max_cycle;Signal;HPM_P1;HPM_P2
2022/06/07 00:02:01;;;;;;;3.70;1.60;;;;;;;21.36;46.66;97661.97;10519864;28;20040;-93
2022/06/07 00:07:22;;;;;;;3.08;1.40;;;;;;;21.32;47.22;97659.00;10533524;28;20056;-93
2022/06/07 00:12:43;;;;;;;2.20;1.40;;;;;;;21.23;47.32;97663.03;10533897;28;20378;-94
2022/06/07 00:18:04;;;;;;;3.75;1.50;;;;;;;21.27;47.57;97659.59;10505317;28;20036;-93
2022/06/07 00:23:24;;;;;;;2.65;1.25;;;;;;;21.28;47.63;97653.25;10504678;28;20474;-93
2022/06/07 00:28:45;;;;;;;3.50;1.40;;;;;;;21.25;47.62;97657.41;10505577;28;20065;-93
2022/06/07 00:34:06;;;;;;;5.00;1.60;;;;;;;21.25;47.98;97654.56;10505431;28;20036;-93
2022/06/07 00:39:26;;;;;;;1.95;1.20;;;;;;;21.27;47.90;97659.59;10504871;28;20044;-94
2022/06/07 00:44:47;;;;;;;2.72;1.48;;;;;;;21.26;48.19;97649.59;10488258;28;20036;-92
2022/06/07 00:50:22;;;;;;;2.55;1.55;;;;;;;21.25;48.46;97637.53;10497418;28;20504;-90
2022/06/07 00:55:42;;;;;;;3.00;1.67;;;;;;;21.24;48.06;97652.41;10499005;28;20036;-92
2022/06/07 01:01:07;;;;;;;2.55;1.17;;;;;;;21.22;48.50;97661.56;10494763;28;20043;-92
2022/06/07 01:12:10;;;;;;;3.70;1.33;;;;;;;21.12;49.25;97662.03;10499038;28;20043;-93
2022/06/07 01:17:32;;;;;;;2.75;1.50;;;;;;;21.07;50.03;97669.03;10517415;28;20044;-93
2022/06/07 01:22:52;;;;;;;4.25;1.80;;;;;;;20.95;50.54;97663.06;10503523;28;20374;-92
2022/06/07 01:28:16;;;;;;;4.57;1.67;;;;;;;20.85;50.54;97662.78;10517703;28;20478;-94
2022/06/07 01:33:37;;;;;;;2.08;1.50;;;;;;;20.74;51.30;97667.44;10502121;28;20044;-93
2022/06/07 01:44:43;;;;;;;4.60;1.73;;;;;;;20.58;52.36;97667.75;10521953;28;20045;-93
2022/06/07 01:50:05;;;;;;;3.15;1.50;;;;;;;20.52;52.59;97661.91;10516150;28;20062;-92
2022/06/07 01:55:26;;;;;;;3.63;1.25;;;;;;;20.45;53.18;97653.91;10501916;28;20047;-93
2022/06/07 02:00:55;;;;;;;4.78;1.50;;;;;;;20.20;53.84;97647.56;10502625;28;20067;-93
2022/06/07 02:06:16;;;;;;;4.22;1.30;;;;;;;20.15;54.03;97639.59;10501505;28;20040;-93
2022/06/07 02:11:40;;;;;;;2.17;1.50;;;;;;;20.12;54.88;97635.25;10515504;28;20058;-92
2022/06/07 02:17:03;;;;;;;2.27;1.50;;;;;;;20.04;54.89;97635.75;10502141;28;20444;-91
2022/06/07 02:22:32;;;;;;;3.75;1.30;;;;;;;19.96;55.46;97641.91;10503584;28;20477;-91
2022/06/07 02:27:53;;;;;;;2.10;1.05;;;;;;;19.89;55.63;97637.47;10499773;28;20037;-93
2022/06/07 02:33:13;;;;;;;3.40;1.58;;;;;;;19.84;56.16;97630.22;10500184;28;20042;-92
2022/06/07 02:38:34;;;;;;;2.03;1.42;;;;;;;19.84;56.20;97626.66;10499202;28;20047;-90
2022/06/07 02:43:55;;;;;;;2.92;1.23;;;;;;;19.80;56.51;97618.06;10499449;28;20398;-92
2022/06/07 02:49:16;;;;;;;3.72;1.17;;;;;;;19.76;56.82;97621.47;10499676;28;20055;-93
2022/06/07 02:54:38;;;;;;;2.03;1.17;;;;;;;19.71;57.24;97615.00;10500874;28;20051;-92
2022/06/07 03:00:06;;;;;;;1.77;1.17;;;;;;;19.64;57.55;97615.47;10500583;28;20032;-91
2022/06/07 03:05:27;;;;;;;5.07;1.00;;;;;;;19.61;57.63;97620.34;10528346;28;20470;-92
2022/06/07 03:10:53;;;;;;;3.58;0.80;;;;;;;19.67;57.80;97619.78;10502353;28;20040;-92
2022/06/07 03:16:15;;;;;;;2.10;0.80;;;;;;;19.65;57.50;97619.75;10500455;28;20097;-92
2022/06/07 03:21:37;;;;;;;4.13;0.80;;;;;;;19.67;57.43;97623.34;10500511;28;20055;-92
2022/06/07 03:26:58;;;;;;;2.40;0.93;;;;;;;19.63;57.61;97620.41;10520918;28;20093;-90
2022/06/07 03:32:20;;;;;;;2.17;0.93;;;;;;;19.58;57.94;97626.59;10504686;28;20097;-91
2022/06/07 03:37:41;;;;;;;2.60;1.00;;;;;;;19.58;58.00;97618.81;10504496;28;20489;-91
2022/06/07 03:43:03;;;;;;;2.25;1.05;;;;;;;19.47;57.97;97617.03;10503860;28;20066;-90
2022/06/07 03:48:25;;;;;;;5.20;1.40;;;;;;;19.47;58.11;97605.72;10496330;28;20051;-88
2022/06/07 03:53:47;;;;;;;1.90;1.05;;;;;;;19.45;58.20;97609.22;10500789;28;20036;-92
2022/06/07 03:59:10;;;;;;;2.05;1.00;;;;;;;19.41;58.28;97614.03;10500593;28;20044;-91
2022/06/07 04:04:31;;;;;;;2.13;1.10;;;;;;;19.37;58.63;97600.47;10493733;28;20040;-76
2022/06/07 04:09:52;;;;;;;4.53;1.50;;;;;;;19.39;59.00;97605.47;10495988;28;20040;-77
2022/06/07 04:15:18;;;;;;;1.73;0.90;;;;;;;19.42;58.89;97604.16;10507933;28;20040;-76
2022/06/07 04:20:40;;;;;;;4.55;1.98;;;;;;;19.48;59.78;97609.28;10493730;28;20387;-77
2022/06/07 04:26:14;;;;;;;4.85;3.13;;;;;;;19.48;59.38;97607.16;10521840;28;20566;-76
2022/06/07 04:31:38;;;;;;;3.13;2.28;;;;;;;19.39;59.51;97619.63;10506068;28;20101;-76
2022/06/07 04:37:05;;;;;;;4.68;2.03;;;;;;;19.40;59.87;97623.94;10508773;28;20032;-76
2022/06/07 04:42:26;;;;;;;4.63;1.40;;;;;;;19.42;60.33;97632.47;10523057;28;20036;-91
2022/06/07 04:48:02;;;;;;;2.03;1.23;;;;;;;19.53;60.11;97636.34;10505281;28;20473;-91
2022/06/07 04:53:26;;;;;;;4.18;2.28;;;;;;;19.67;60.33;97626.19;10405556;28;20041;-85
2022/06/07 04:58:47;;;;;;;2.08;1.25;;;;;;;19.85;59.51;97633.78;10377337;28;20052;-85
2022/06/07 05:04:11;;;;;;;2.25;1.27;;;;;;;19.74;59.49;97646.91;10391389;28;20431;-86
2022/06/07 05:09:35;;;;;;;2.92;1.50;;;;;;;19.59;59.56;97648.59;10429948;28;20509;-85
2022/06/07 05:15:03;;;;;;;4.90;1.67;;;;;;;19.35;60.22;97661.97;10432690;28;20041;-85
2022/06/07 05:20:31;;;;;;;3.72;1.60;;;;;;;19.32;60.32;97666.13;10432787;28;20041;-86
2022/06/07 05:26:24;;;;;;;4.38;1.48;;;;;;;19.26;60.46;97668.75;10434518;28;20045;-89
2022/06/07 05:31:47;;;;;;;2.78;1.88;;;;;;;19.20;60.36;97665.69;10445949;28;20037;-91
2022/06/07 05:37:18;;;;;;;4.70;1.60;;;;;;;19.18;60.55;97666.38;10431644;28;20048;-92
2022/06/07 05:42:42;;;;;;;4.00;1.53;;;;;;;19.20;60.84;97671.38;10440558;28;20048;-90
2022/06/07 05:48:08;;;;;;;2.95;1.20;;;;;;;19.28;60.87;97671.63;10434993;28;20282;-88
2022/06/07 05:53:38;;;;;;;2.50;1.30;;;;;;;19.41;60.62;97670.66;10415956;28;20048;-86
2022/06/07 05:59:00;;;;;;;1.85;1.50;;;;;;;19.38;61.15;97678.34;10443265;28;20530;-87
2022/06/07 06:04:24;;;;;;;4.32;1.50;;;;;;;19.38;61.43;97677.63;10429230;28;20049;-88
2022/06/07 06:15:32;;;;;;;10.23;1.55;;;;;;;19.29;62.04;97682.28;10459110;28;20045;-86
2022/06/07 06:20:55;;;;;;;3.00;1.58;;;;;;;19.28;62.10;97674.47;10455924;28;20049;-86
2022/06/07 06:26:20;;;;;;;5.22;1.10;;;;;;;19.34;62.12;97681.06;10442721;28;20094;-86
2022/06/07 06:31:46;;;;;;;4.72;1.50;;;;;;;19.38;62.21;97688.94;10442147;28;20064;-87
2022/06/07 06:37:10;;;;;;;5.55;1.58;;;;;;;19.46;62.52;97689.19;10442507;28;20052;-87
2022/06/07 06:42:33;;;;;;;5.07;1.50;;;;;;;19.47;62.14;97690.63;10456222;28;20444;-86
2022/06/07 06:48:13;;;;;;;3.55;1.38;;;;;;;19.52;63.14;97695.06;10455467;28;20045;-88
2022/06/07 06:53:35;;;;;;;2.25;1.45;;;;;;;19.57;62.43;97684.59;10410455;28;20444;-86
2022/06/07 06:59:06;;;;;;;2.22;1.20;;;;;;;19.55;62.32;97685.25;10389423;28;20045;-90
2022/06/07 07:04:27;;;;;;;2.65;1.40;;;;;;;19.60;62.33;97684.03;10400562;28;20475;-87
2022/06/07 07:09:50;;;;;;;2.38;1.10;;;;;;;19.71;62.62;97693.56;10387254;28;20053;-86
2022/06/07 07:15:13;;;;;;;2.45;1.10;;;;;;;19.83;62.15;97684.69;10386122;28;20050;-87
2022/06/07 07:20:43;;;;;;;2.13;0.95;;;;;;;19.93;62.08;97694.22;10406633;28;20033;-88
2022/06/07 07:26:06;;;;;;;1.98;0.80;;;;;;;19.96;61.96;97680.84;10412591;28;20044;-86
2022/06/07 07:31:34;;;;;;;1.40;0.90;;;;;;;20.00;61.83;97672.47;10414802;28;20041;-87
2022/06/07 07:36:57;;;;;;;2.42;1.02;;;;;;;20.09;61.82;97676.28;10415447;28;20041;-89
2022/06/07 07:42:23;;;;;;;2.45;0.95;;;;;;;20.07;61.32;97674.06;10418097;28;20049;-89
2022/06/07 07:47:54;;;;;;;3.72;0.98;;;;;;;20.25;61.23;97683.09;10438035;28;20471;-90
2022/06/07 07:53:15;;;;;;;2.05;1.40;;;;;;;20.61;60.95;97682.00;10473131;28;20049;-89
2022/06/07 07:58:36;;;;;;;3.78;1.00;;;;;;;20.91;60.88;97673.56;10476120;28;20044;-87
2022/06/07 08:03:58;;;;;;;3.33;1.73;;;;;;;20.80;60.18;97670.47;10475516;28;20040;-88
2022/06/07 08:09:28;;;;;;;3.58;1.40;;;;;;;20.60;60.13;97669.19;10506167;28;20040;-88
2022/06/07 08:14:49;;;;;;;4.30;1.80;;;;;;;20.45;60.54;97665.25;10489223;28;20090;-88
2022/06/07 08:20:10;;;;;;;4.88;1.13;;;;;;;20.22;60.09;97678.78;10474845;28;20041;-87
2022/06/07 08:25:31;;;;;;;4.90;1.02;;;;;;;20.07;60.42;97676.91;10489180;28;20049;-87
2022/06/07 08:30:52;;;;;;;2.20;1.10;;;;;;;20.04;60.32;97678.25;10489206;28;20045;-89
2022/06/07 08:41:57;;;;;;;3.05;1.40;;;;;;;19.85;61.30;97687.59;10490587;28;20429;-87
2022/06/07 08:47:27;;;;;;;3.35;1.67;;;;;;;19.89;61.00;97682.06;10501895;28;20486;-89
2022/06/07 08:52:50;;;;;;;7.18;2.17;;;;;;;19.88;60.91;97689.09;10501371;28;20057;-90
2022/06/07 08:58:49;;;;;;;7.10;2.17;;;;;;;19.94;61.76;97680.78;10502038;28;20111;-87
2022/06/07 09:04:25;;;;;;;4.80;1.83;;;;;;;19.95;61.46;97690.72;10518304;28;20036;-81
2022/06/07 09:15:31;;;;;;;3.72;1.60;;;;;;;19.91;62.20;97685.66;10495209;28;20055;-90
2022/06/07 09:20:54;;;;;;;3.08;1.40;;;;;;;19.81;62.14;97690.31;10454248;28;20047;-86
2022/06/07 09:26:17;;;;;;;4.82;1.30;;;;;;;19.72;62.00;97692.88;10483437;28;20048;-91
2022/06/07 09:31:44;;;;;;;2.10;1.27;;;;;;;19.54;61.72;97695.13;10499938;28;20047;-83
2022/06/07 09:37:06;;;;;;;3.65;1.52;;;;;;;19.30;63.02;97683.00;10471937;28;20440;-84
2022/06/07 09:42:27;;;;;;;4.55;1.42;;;;;;;19.19;63.31;97684.78;10472187;28;20513;-88
2022/06/07 09:47:48;;;;;;;3.92;1.30;;;;;;;19.27;63.60;97687.16;10498941;28;20052;-82
2022/06/07 09:53:10;;;;;;;3.33;1.40;;;;;;;19.34;63.57;97683.88;10498549;28;20067;-86
2022/06/07 09:58:41;;;;;;;3.03;1.47;;;;;;;19.38;63.59;97686.09;10470893;28;20037;-88
2022/06/07 10:04:06;;;;;;;3.90;1.60;;;;;;;19.50;63.75;97691.44;10471494;28;20048;-87
2022/06/07 10:09:41;;;;;;;2.58;1.02;;;;;;;19.52;63.51;97692.22;10513274;28;20044;-85
2022/06/07 10:15:17;;;;;;;2.38;1.15;;;;;;;19.60;63.31;97688.97;10498494;28;20037;-88
2022/06/07 10:20:54;;;;;;;3.20;1.40;;;;;;;19.67;63.42;97688.47;10471426;28;20467;-92
2022/06/07 10:27:03;;;;;;;4.07;0.98;;;;;;;19.48;64.03;97689.25;10484950;28;20044;-90
2022/06/07 10:32:36;;;;;;;2.30;1.25;;;;;;;19.64;63.95;97692.63;10476710;28;20053;-90
2022/06/07 10:38:33;;;;;;;3.83;1.00;;;;;;;19.89;63.51;97691.28;10506371;28;20040;-91
2022/06/07 10:44:13;;;;;;;1.70;0.80;;;;;;;19.95;63.07;97688.63;10427437;28;20061;-80
2022/06/07 10:49:46;;;;;;;2.33;0.95;;;;;;;20.13;63.08;97682.03;10463685;28;20052;-85
2022/06/07 10:55:28;;;;;;;4.35;1.50;;;;;;;20.42;63.04;97678.63;10469394;28;20045;-88
2022/06/07 11:01:06;;;;;;;4.97;1.07;;;;;;;20.45;61.78;97673.75;10482931;28;20041;-89
2022/06/07 11:12:24;;;;;;;1.83;0.73;;;;;;;20.45;61.78;97671.63;10482497;28;20041;-81
2022/06/07 11:17:56;;;;;;;1.25;0.65;;;;;;;20.41;61.08;97662.28;10463155;28;20368;-82
2022/06/07 11:23:23;;;;;;;4.05;0.93;;;;;;;20.36;61.64;97658.59;10534174;28;20067;-82
2022/06/07 11:28:48;;;;;;;5.68;0.82;;;;;;;20.53;61.58;97654.13;10514570;28;20036;-85
2022/06/07 11:34:27;;;;;;;2.17;0.85;;;;;;;20.73;61.40;97649.00;10527643;28;20036;-85
2022/06/07 11:39:57;;;;;;;1.65;0.90;;;;;;;20.79;61.20;97640.66;10504700;28;20474;-85
2022/06/07 11:45:23;;;;;;;1.85;0.65;;;;;;;21.07;60.69;97637.81;10503127;28;20044;-84
2022/06/07 11:51:12;;;;;;;0.75;0.40;;;;;;;21.06;59.82;97635.66;10531420;28;20056;-85
2022/06/07 11:56:37;;;;;;;1.95;0.70;;;;;;;21.09;59.87;97628.63;10530768;28;20105;-85
2022/06/07 12:02:01;;;;;;;0.90;0.40;;;;;;;21.34;58.95;97627.84;10530865;28;20044;-84
2022/06/07 12:07:37;;;;;;;0.73;0.35;;;;;;;21.77;59.19;97620.28;10530398;28;20496;-85
2022/06/07 12:13:49;;;;;;;2.40;0.60;;;;;;;22.23;56.77;97608.44;10504321;28;20106;-85
2022/06/07 12:19:02;;;;;;;;;;;;;;;22.49;55.56;97613.94;10523191;28;20044;-87
2022/06/07 12:24:23;;;;;;;0.50;0.40;;;;;;;22.71;56.12;97613.59;10514508;28;19920;-84
2022/06/07 12:29:44;;;;;;;1.67;0.50;;;;;;;22.79;55.96;97616.59;10496792;28;20036;-79
2022/06/07 12:35:14;;;;;;;3.25;0.50;;;;;;;22.68;56.10;97609.25;10496957;28;20040;-86
2022/06/07 12:40:49;;;;;;;0.90;0.50;;;;;;;22.67;54.77;97602.13;10541817;28;20039;-82
2022/06/07 12:46:29;;;;;;;1.85;0.50;;;;;;;22.78;53.55;97598.09;10517879;28;20040;-80
2022/06/07 12:52:01;;;;;;;2.20;0.70;;;;;;;22.95;53.81;97588.41;10497414;28;20051;-84
2022/06/07 12:57:25;;;;;;;0.75;0.47;;;;;;;23.00;53.11;97589.22;10509807;28;20044;-81
2022/06/07 13:02:51;;;;;;;1.45;0.57;;;;;;;23.27;52.80;97584.66;10523420;28;20044;-83
2022/06/07 13:08:15;;;;;;;2.35;0.40;;;;;;;23.54;52.40;97595.00;10510307;28;20122;-83
2022/06/07 13:13:37;;;;;;;2.58;0.47;;;;;;;23.99;51.67;97575.69;10512225;28;20048;-83
2022/06/07 13:19:18;;;;;;;0.80;0.40;;;;;;;24.14;50.52;97570.88;10512190;28;20105;-82
2022/06/07 13:24:51;;;;;;;0.80;0.60;;;;;;;24.33;50.45;97555.41;10528007;28;20059;-83
2022/06/07 13:30:20;;;;;;;;;;;;;;;24.58;48.62;97561.34;10497502;28;20052;-82
2022/06/07 13:35:58;;;;;;;3.42;0.60;;;;;;;24.39;48.08;97552.63;10522772;28;20370;-83
2022/06/07 13:41:21;;;;;;;1.08;0.40;;;;;;;24.56;48.28;97559.19;10482625;28;20036;-82
2022/06/07 13:46:55;;;;;;;;;;;;;;;24.20;47.16;97550.97;10508784;28;20497;-82
2022/06/07 13:58:09;;;;;;;1.02;0.50;;;;;;;24.33;47.32;97532.59;10527525;28;20406;-83
2022/06/07 14:03:36;;;;;;;2.03;0.40;;;;;;;24.26;47.26;97528.22;10493131;28;20040;-84
2022/06/07 14:08:57;;;;;;;2.38;0.40;;;;;;;24.74;46.85;97527.97;10505033;28;20104;-84
2022/06/07 14:14:18;;;;;;;1.67;0.40;;;;;;;24.93;45.94;97537.41;10511319;28;20040;-75
2022/06/07 14:19:41;;;;;;;0.85;0.30;;;;;;;24.96;45.82;97521.00;10510403;28;20389;-75
2022/06/07 14:25:06;;;;;;;1.75;0.30;;;;;;;24.72;45.53;97519.41;10522440;28;20039;-79
2022/06/07 14:30:28;;;;;;;2.72;0.20;;;;;;;24.87;44.57;97522.34;10507714;28;20040;-80
2022/06/07 14:35:50;;;;;;;0.60;0.28;;;;;;;24.40;44.29;97524.81;10494129;28;20044;-76
2022/06/07 14:41:10;;;;;;;0.55;0.30;;;;;;;24.11;44.37;97513.09;10491161;28;20097;-79
2022/06/07 14:46:31;;;;;;;1.92;0.40;;;;;;;24.10;44.11;97523.06;10511119;28;20047;-74
2022/06/07 14:51:54;;;;;;;2.70;0.30;;;;;;;24.27;44.22;97516.13;10507577;28;20060;-75
2022/06/07 14:57:21;;;;;;;1.40;0.38;;;;;;;24.36;43.76;97511.25;10510761;28;20048;-74
2022/06/07 15:02:42;;;;;;;1.35;0.50;;;;;;;24.49;42.95;97512.06;10468900;28;20455;-75
2022/06/07 15:08:04;;;;;;;0.88;0.40;;;;;;;24.25;42.83;97513.25;10479757;28;20051;-72
2022/06/07 15:13:28;;;;;;;2.22;0.38;;;;;;;24.17;43.52;97506.75;10495681;28;20051;-73
2022/06/07 15:18:50;;;;;;;3.53;0.40;;;;;;;24.18;43.60;97499.63;10482317;28;20043;-74
2022/06/07 15:24:12;;;;;;;2.65;0.40;;;;;;;24.22;43.56;97494.69;10510497;28;20069;-74
2022/06/07 15:29:52;;;;;;;3.40;0.60;;;;;;;24.34;43.70;97487.69;10495757;28;20048;-74
2022/06/07 15:35:16;;;;;;;1.75;0.52;;;;;;;24.22;43.46;97500.38;10511665;28;20301;-74
2022/06/07 15:40:37;;;;;;;2.58;0.52;;;;;;;24.14;43.66;97493.88;10494493;28;20063;-74
2022/06/07 15:45:58;;;;;;;2.63;0.52;;;;;;;24.05;43.00;97493.09;10523082;28;20165;-73
2022/06/07 15:51:19;;;;;;;2.80;0.40;;;;;;;23.62;43.89;97501.13;10509153;28;20052;-72
2022/06/07 15:56:39;;;;;;;2.65;0.95;;;;;;;23.57;44.23;97488.25;10530118;28;20036;-73
2022/06/07 16:02:00;;;;;;;1.15;0.40;;;;;;;23.33;44.21;97500.03;10545817;28;20039;-76
2022/06/07 16:07:21;;;;;;;2.17;0.50;;;;;;;23.18;45.12;97489.16;10502697;28;20129;-74
2022/06/07 16:12:43;;;;;;;5.65;1.10;;;;;;;23.26;45.11;97492.09;10502358;28;20390;-74
2022/06/07 16:18:04;;;;;;;1.90;0.60;;;;;;;23.29;45.34;97493.56;10488930;28;20035;-74
2022/06/07 16:23:25;;;;;;;2.53;0.47;;;;;;;23.27;45.51;97487.84;10498961;28;20101;-74
2022/06/07 16:34:25;;;;;;;1.63;0.60;;;;;;;23.05;46.21;97476.84;10517972;28;20047;-76
2022/06/07 16:39:46;;;;;;;1.58;0.50;;;;;;;23.12;45.95;97481.22;10501308;28;20040;-77
2022/06/07 16:45:07;;;;;;;1.00;0.50;;;;;;;23.06;46.12;97475.44;10515358;28;20039;-74
2022/06/07 16:50:29;;;;;;;2.85;0.50;;;;;;;23.01;45.92;97483.22;10501301;28;20056;-76
2022/06/07 16:55:53;;;;;;;1.70;0.88;;;;;;;22.93;46.14;97485.22;10513185;28;20040;-75
2022/06/07 17:01:16;;;;;;;0.88;0.38;;;;;;;22.72;46.68;97484.19;10494239;28;20040;-75
2022/06/07 17:06:37;;;;;;;;;;;;;;;22.41;47.04;97503.59;10500669;28;20040;-75
2022/06/07 17:11:58;;;;;;;3.15;0.80;;;;;;;22.05;47.30;97500.78;10528156;28;19920;-75
2022/06/07 17:17:21;;;;;;;1.77;0.70;;;;;;;21.60;48.46;97505.59;10527557;28;20040;-76
2022/06/07 17:22:42;;;;;;;1.58;0.73;;;;;;;21.30;49.33;97508.50;10499673;28;20129;-76
2022/06/07 17:28:05;;;;;;;1.67;0.75;;;;;;;21.14;50.04;97511.00;10541430;28;20051;-72
2022/06/07 17:33:25;;;;;;;4.00;1.90;;;;;;;21.13;50.86;97512.34;10513554;28;20040;-74
2022/06/07 17:38:46;;;;;;;1.88;0.90;;;;;;;21.12;50.65;97510.91;10508216;28;20089;-73
2022/06/07 17:44:06;;;;;;;2.95;0.75;;;;;;;21.14;50.55;97502.47;10477057;28;20048;-73
2022/06/07 17:49:27;;;;;;;2.60;1.08;;;;;;;21.12;51.26;97503.13;10498584;28;20055;-74
2022/06/07 17:54:48;;;;;;;2.03;0.90;;;;;;;21.05;51.75;97512.91;10498141;28;20040;-75
2022/06/07 18:00:09;;;;;;;3.05;1.35;;;;;;;20.98;52.01;97510.63;10470278;28;20406;-74
2022/06/07 18:05:34;;;;;;;6.57;2.25;;;;;;;21.02;52.21;97513.53;10470774;28;20456;-73
2022/06/07 18:10:55;;;;;;;3.33;0.98;;;;;;;21.01;52.24;97514.94;10456398;28;20493;-74
2022/06/07 18:16:15;;;;;;;3.97;1.30;;;;;;;20.93;52.78;97518.28;10469155;28;20044;-72
2022/06/07 18:21:38;;;;;;;2.80;0.85;;;;;;;20.82;52.98;97525.13;10469839;28;20547;-73
2022/06/07 18:27:00;;;;;;;1.90;1.27;;;;;;;20.75;53.55;97524.28;10455918;28;20138;-73
2022/06/07 18:32:23;;;;;;;6.50;0.98;;;;;;;20.66;53.61;97514.13;10457937;28;20556;-73
2022/06/07 18:37:45;;;;;;;4.53;0.90;;;;;;;20.60;53.68;97518.94;10481194;28;20040;-73
2022/06/07 18:43:06;;;;;;;3.78;0.95;;;;;;;20.52;54.37;97522.28;10496657;28;20043;-73
2022/06/07 18:48:27;;;;;;;3.17;0.98;;;;;;;20.40;54.31;97522.66;10496523;28;20040;-73
2022/06/07 18:53:49;;;;;;;2.63;1.35;;;;;;;20.23;54.70;97510.19;10496398;28;20469;-72
2022/06/07 18:59:11;;;;;;;4.57;1.27;;;;;;;20.02;54.85;97505.38;10496377;28;20101;-75
2022/06/07 19:04:32;;;;;;;4.78;1.52;;;;;;;19.94;55.37;97510.81;10493872;28;20494;-85
2022/06/07 19:09:58;;;;;;;3.42;1.20;;;;;;;19.88;55.67;97511.41;10496106;28;20059;-82
2022/06/07 19:15:34;;;;;;;3.92;1.40;;;;;;;19.72;55.74;97527.94;10497886;28;20051;-84
2022/06/07 19:20:56;;;;;;;8.73;4.37;;;;;;;19.64;56.05;97536.91;10511561;28;20040;-87
2022/06/07 19:26:19;;;;;;;22.92;12.23;;;;;;;19.58;56.45;97536.00;10496888;28;20079;-84
2022/06/07 19:31:40;;;;;;;17.13;8.70;;;;;;;19.55;56.53;97549.34;10532506;28;20126;-85
2022/06/07 19:37:02;;;;;;;9.23;5.60;;;;;;;19.58;56.60;97548.06;10490493;28;20500;-84
2022/06/07 19:42:24;;;;;;;4.03;1.40;;;;;;;19.58;56.99;97547.31;10518256;28;20063;-85
2022/06/07 19:47:45;;;;;;;2.15;1.10;;;;;;;19.54;57.18;97553.56;10503753;28;20089;-86
2022/06/07 19:53:06;;;;;;;4.55;1.33;;;;;;;19.51;57.33;97552.09;10517371;28;20139;-89
2022/06/07 19:58:28;;;;;;;2.70;1.30;;;;;;;19.42;57.70;97551.13;10504054;28;20417;-91
2022/06/07 20:03:49;;;;;;;3.65;1.50;;;;;;;19.33;58.02;97551.53;10503363;28;20134;-84
2022/06/07 20:09:13;;;;;;;2.70;1.40;;;;;;;19.20;58.46;97550.44;10517567;28;20537;-81
2022/06/07 20:14:35;;;;;;;4.72;1.48;;;;;;;19.17;58.50;97554.59;10502604;28;20044;-85
2022/06/07 20:19:56;;;;;;;3.13;1.60;;;;;;;19.14;59.12;97553.09;10516696;28;20097;-87
2022/06/07 20:25:18;;;;;;;5.40;2.22;;;;;;;19.07;59.06;97545.78;10502491;28;20040;-87
2022/06/07 20:30:39;;;;;;;4.13;1.73;;;;;;;19.01;59.51;97554.06;10502101;28;20044;-87
2022/06/07 20:36:00;;;;;;;3.30;1.30;;;;;;;18.96;59.68;97550.41;10501689;28;20044;-83
2022/06/07 20:41:20;;;;;;;3.30;2.10;;;;;;;18.92;60.06;97555.94;10514613;28;20371;-86
2022/06/07 20:46:42;;;;;;;5.32;1.40;;;;;;;18.92;60.47;97555.94;10501165;28;20063;-89
2022/06/07 20:52:06;;;;;;;3.65;1.30;;;;;;;18.84;60.55;97550.75;10500922;28;20056;-85
2022/06/07 20:57:27;;;;;;;1.65;1.20;;;;;;;18.77;60.68;97542.72;10513484;28;20044;-86
2022/06/07 21:02:47;;;;;;;5.15;1.20;;;;;;;18.73;61.09;97539.78;10528722;28;20058;-89
2022/06/07 21:08:09;;;;;;;2.83;1.20;;;;;;;18.68;61.35;97544.56;10500900;28;20367;-88
2022/06/07 21:13:31;;;;;;;3.45;1.30;;;;;;;18.62;61.72;97540.78;10511033;28;20036;-88
2022/06/07 21:18:51;;;;;;;5.03;1.33;;;;;;;18.53;61.59;97540.53;10498408;28;20040;-88
2022/06/07 21:24:12;;;;;;;2.35;1.20;;;;;;;18.45;62.12;97526.13;10488318;28;20044;-86
2022/06/07 21:29:32;;;;;;;3.38;1.27;;;;;;;18.33;62.24;97516.50;10510448;28;20102;-84
2022/06/07 21:34:53;;;;;;;3.08;1.20;;;;;;;18.24;62.51;97512.72;10510513;28;20040;-86
2022/06/07 21:40:16;;;;;;;3.20;1.05;;;;;;;18.17;62.70;97511.03;10527102;28;20040;-89
2022/06/07 21:45:37;;;;;;;2.10;0.93;;;;;;;18.10;62.96;97520.69;10513021;28;20044;-88
2022/06/07 21:50:58;;;;;;;2.95;0.90;;;;;;;18.07;63.28;97513.53;10540002;28;20060;-86
2022/06/07 21:56:18;;;;;;;2.35;1.02;;;;;;;18.06;63.40;97509.97;10512360;28;20473;-87
2022/06/07 22:01:39;;;;;;;2.55;1.10;;;;;;;18.07;63.56;97513.53;10498708;28;20036;-87
2022/06/07 22:06:59;;;;;;;2.45;1.05;;;;;;;18.03;63.46;97509.16;10512055;28;20587;-85
2022/06/07 22:12:20;;;;;;;4.15;1.10;;;;;;;18.05;63.40;97507.78;10498059;28;20039;-85
2022/06/07 22:17:41;;;;;;;2.15;0.85;;;;;;;17.99;63.29;97497.03;10497911;28;20470;-86
2022/06/07 22:23:02;;;;;;;2.90;0.95;;;;;;;17.94;63.44;97496.13;10511985;28;20047;-86
2022/06/07 22:28:23;;;;;;;3.47;1.15;;;;;;;17.91;63.52;97496.72;10511325;28;20048;-85
2022/06/07 22:33:45;;;;;;;2.45;1.00;;;;;;;17.82;63.64;97495.72;10511475;28;20036;-87
2022/06/07 22:39:06;;;;;;;2.58;1.00;;;;;;;17.75;63.98;97496.88;10497709;28;20363;-87
2022/06/07 22:44:27;;;;;;;5.53;0.90;;;;;;;17.72;64.11;97481.25;10509430;28;20048;-84
2022/06/07 22:49:47;;;;;;;4.35;1.27;;;;;;;17.68;63.96;97487.47;10505099;28;20052;-85
2022/06/07 22:55:12;;;;;;;2.20;0.80;;;;;;;17.65;63.89;97477.47;10491474;28;20036;-86
2022/06/07 23:00:33;;;;;;;2.25;0.70;;;;;;;17.68;63.53;97481.09;10520261;28;20466;-87
2022/06/07 23:05:53;;;;;;;1.33;0.70;;;;;;;17.66;63.57;97481.75;10479570;28;20039;-87
2022/06/07 23:11:14;;;;;;;3.00;0.70;;;;;;;17.60;63.25;97484.34;10492266;28;20096;-87
2022/06/07 23:22:15;;;;;;;1.80;0.75;;;;;;;17.43;63.17;97473.84;10474173;28;20048;-86
2022/06/07 23:27:36;;;;;;;2.05;0.60;;;;;;;17.34;63.14;97464.34;10468620;28;20433;-87
2022/06/07 23:32:57;;;;;;;4.38;0.70;;;;;;;17.31;63.02;97462.13;10454447;28;20091;-87
2022/06/07 23:38:18;;;;;;;3.22;0.60;;;;;;;17.28;63.37;97455.69;10468049;28;20041;-86
2022/06/07 23:43:38;;;;;;;2.42;0.75;;;;;;;17.23;63.27;97448.44;10454654;28;20094;-87
2022/06/07 23:49:05;;;;;;;1.65;0.60;;;;;;;17.21;63.30;97448.38;10455641;28;20106;-88
2022/06/07 23:54:27;;;;;;;1.20;0.57;;;;;;;17.15;63.23;97439.69;10468250;28;20043;-86
2022/06/07 23:59:53;;;;;;;6.75;0.80;;;;;;;17.10;63.10;97438.09;10454737;28;20036;-89
